Latest Weather Observations for Mount Read

IDT60801

Issued at 9:35 am EDT Thursday 23 October 2014 (issued every 30 minutes, with the page automatically refreshed every 10 minutes)

About weather observations | Map of weather stations | Latest weather observations for TAS | Other Formats
Station Details ID: 097085 Name: MOUNT READ Lat: -41.84 Lon: 145.54 Height: 1119.5 m
Data from the previous 72 hours. | See also: Recent months at Mount Read
Date/Time
EDT
Temp
°C
App
Temp
°C
Dew
Point
Rel
Hum
%
Delta-T
°C
Wind Press
QNH
hPa
Press
MSL
hPa
Rain
since 9 am
mm
Dir
 
Spd
km/h
Gust
km/h
Spd
kts
Gust
kts
23/09:30am 10.1 7.0 7.3 83 1.4 E 13 19 7 10 1022.1 1023.4 0.0
23/09:00am 9.4 6.5 8.0 91 0.7 E 13 17 7 9 1021.9 1023.2 0.8
23/08:30am 7.9 4.9 7.5 97 0.2 E 13 17 7 9 1021.8 1023.0 0.8
23/08:00am 7.0 2.7 6.9 99 0.0 ESE 19 24 10 13 1021.5 1022.7 0.8
23/07:30am 6.9 2.4 6.8 99 0.0 E 20 28 11 15 1021.1 1022.3 0.8
23/07:00am 6.8 2.4 6.7 99 0.0 E 19 33 10 18 1020.7 1021.9 0.8
23/06:30am 6.3 1.2 6.2 99 0.0 E 22 30 12 16 1020.1 1021.3 0.8
23/06:00am 6.0 0.9 5.9 99 0.0 ESE 22 33 12 18 1019.7 1020.9 0.8
23/05:30am 6.2 1.1 6.1 99 0.0 ESE 22 30 12 16 1019.5 1020.6 0.8
23/05:00am 6.1 -0.1 6.0 99 0.0 SE 28 35 15 19 1019.1 1020.3 0.8
23/04:30am 6.2 0.0 6.1 99 0.0 SE 28 41 15 22 1018.9 1020.1 0.8
23/04:00am 6.2 -0.4 6.1 99 0.0 SSE 30 39 16 21 1018.8 1019.9 0.6
23/03:30am 6.4 -0.1 6.3 99 0.0 SE 30 37 16 20 1018.6 1019.7 0.6
23/03:00am 6.6 -0.5 6.5 99 0.0 SSE 33 41 18 22 1018.9 1020.1 0.6
23/02:30am 6.6 -2.0 6.5 99 0.0 SSE 41 52 22 28 1018.5 1019.6 0.6
23/02:00am 7.3 -0.8 7.2 99 0.0 SSE 39 48 21 26 1018.5 1019.6 0.6
23/01:30am 7.3 -0.4 7.2 99 0.0 SSE 37 44 20 24 1018.7 1019.8 0.6
23/01:00am 7.4 0.7 7.3 99 0.0 S 32 37 17 20 1019.0 1020.2 0.6
23/12:30am 7.6 0.9 7.5 99 0.1 S 32 41 17 22 1019.2 1020.4 0.4
23/12:00am 7.5 -0.5 7.4 99 0.0 S 39 46 21 25 1019.3 1020.5 0.4
 
Date/Time
EDT
Temp
°C
App
Temp
°C
Dew
Point
Rel
Hum
%
Delta-T
°C
Wind Press
QNH
hPa
Press
MSL
hPa
Rain
since 9 am
mm
Dir
 
Spd
km/h
Gust
km/h
Spd
kts
Gust
kts
22/11:30pm 7.7 1.1 7.6 99 0.1 S 32 41 17 22 1019.3 1020.5 0.4
22/11:00pm 7.5 0.6 7.4 99 0.0 S 33 39 18 21 1019.1 1020.3 0.4
22/10:30pm 7.6 2.1 7.5 99 0.1 S 26 32 14 17 1018.9 1020.1 0.4
22/10:00pm 7.7 1.8 7.6 99 0.1 S 28 32 15 17 1018.8 1019.9 0.4
22/09:30pm 7.8 2.3 7.7 99 0.1 S 26 30 14 16 1018.8 1019.9 0.2
22/09:00pm 7.8 3.5 7.7 99 0.1 S 20 26 11 14 1018.7 1019.8 0.2
22/08:30pm 7.9 3.6 7.8 99 0.1 SSW 20 24 11 13 1018.6 1019.7 0.0
22/08:00pm 7.9 4.9 7.8 99 0.1 SSW 13 19 7 10 1018.3 1019.5 0.0
22/07:30pm 8.1 3.8 8.0 99 0.1 SSW 20 26 11 14 1018.2 1019.4 0.0
22/07:00pm 8.5 3.6 8.4 99 0.1 SSW 24 32 13 17 1018.0 1019.1 0.0
22/06:30pm 8.8 4.3 8.7 99 0.1 SW 22 28 12 15 1018.2 1019.4 0.0
22/06:00pm 9.5 3.9 8.9 96 0.3 SSW 28 37 15 20 1018.0 1019.1 0.0
22/05:30pm 10.9 5.8 9.3 90 0.9 SSW 26 30 14 16 1018.2 1019.4 0.0
22/05:00pm 12.1 7.1 8.2 77 2.0 WNW 24 37 13 20 1018.5 1019.6 0.0
22/04:30pm 12.9 8.5 9.0 77 2.1 W 22 32 12 17 1018.3 1019.5 0.0
22/04:00pm 13.9 9.9 8.1 68 3.1 WNW 19 26 10 14 1018.5 1019.6 0.0
22/03:30pm 14.5 9.9 8.0 65 3.4 W 22 32 12 17 1018.8 1019.9 0.0
22/03:00pm 15.9 12.3 8.2 60 4.1 WNW 17 28 9 15 1018.9 1020.1 0.0
22/02:30pm 15.5 11.5 8.3 62 3.9 NNW 19 33 10 18 1018.8 1019.9 0.0
22/02:00pm 15.8 11.6 8.3 61 4.0 NNE 20 26 11 14 1018.5 1019.6 0.0
22/01:30pm 16.8 13.2 8.2 57 4.6 N 17 24 9 13 1019.1 1020.3 0.0
22/01:00pm 16.3 12.6 8.0 58 4.4 N 17 24 9 13 1018.9 1020.1 0.0
22/12:30pm 14.8 10.9 7.1 60 4.0 N 17 22 9 12 1019.5 1020.6 0.0
22/12:00pm 14.9 10.6 7.0 59 4.1 N 19 22 10 12 1020.1 1021.3 0.0
22/11:30am 14.8 10.3 6.1 56 4.4 NNW 19 30 10 16 1020.3 1021.5 0.0
22/11:00am 13.4 9.2 5.8 60 3.8 NNW 17 22 9 12 1020.6 1021.8 0.0
22/10:30am 12.7 7.6 5.8 63 3.5 NNW 22 32 12 17 1020.8 1022.0 0.0
22/10:00am 11.6 5.9 5.0 64 3.2 NNW 24 32 13 17 1020.8 1022.0 0.0
22/09:30am 10.8 4.6 4.3 64 3.1 NNW 26 33 14 18 1020.8 1022.0 0.0
22/09:00am 8.5 1.8 1.6 62 3.0 N 26 32 14 17 1020.7 1021.9 0.0
22/08:30am 8.2 0.9 0.2 57 3.4 N 28 35 15 19 1020.6 1021.8 0.0
22/08:00am 8.0 0.9 -1.0 53 3.7 N 26 32 14 17 1020.8 1022.0 0.0
22/07:30am 7.7 0.2 -1.3 53 3.7 N 28 33 15 18 1020.9 1022.1 0.0
22/07:00am 7.0 -1.2 -1.2 56 3.3 N 32 37 17 20 1020.8 1022.0 0.0
22/06:30am 6.8 -1.6 -1.1 57 3.2 N 33 37 18 20 1020.9 1022.1 0.0
22/06:00am 7.0 -1.3 -1.7 54 3.5 N 32 43 17 23 1020.8 1022.0 0.0
22/05:30am 6.6 -1.8 -1.3 57 3.2 NNE 33 41 18 22 1020.9 1022.1 0.0
22/05:00am 6.6 -3.8 -1.5 56 3.2 NNE 43 52 23 28 1020.6 1021.8 0.0
22/04:30am 6.1 -3.8 -0.8 61 2.8 NNE 41 50 22 27 1020.8 1022.0 0.0
22/04:00am 5.4 -4.8 0.0 68 2.2 NNE 43 52 23 28 1021.0 1022.2 0.0
22/03:30am 5.2 -5.0 0.0 69 2.1 NNE 43 52 23 28 1021.5 1022.7 0.0
22/03:00am 4.3 -5.3 1.0 79 1.4 N 41 48 22 26 1021.8 1023.0 0.0
22/02:30am 4.1 -6.1 1.1 81 1.3 N 44 52 24 28 1022.0 1023.3 0.0
22/02:00am 4.2 -6.7 1.2 81 1.3 NNE 48 56 26 30 1022.4 1023.6 0.0
22/01:30am 4.0 -6.5 1.5 84 1.1 NNE 46 56 25 30 1022.9 1024.2 0.0
22/01:00am 4.6 -5.9 1.3 79 1.4 NNE 46 56 25 30 1023.5 1024.8 0.0
22/12:30am 4.2 -5.8 1.9 85 1.0 NNE 44 57 24 31 1023.7 1025.0 0.0
22/12:00am 4.4 -5.5 1.8 83 1.1 NNE 43 52 23 28 1023.9 1025.2 0.0
 
Date/Time
EDT
Temp
°C
App
Temp
°C
Dew
Point
Rel
Hum
%
Delta-T
°C
Wind Press
QNH
hPa
Press
MSL
hPa
Rain
since 9 am
mm
Dir
 
Spd
km/h
Gust
km/h
Spd
kts
Gust
kts
21/11:30pm 4.8 -4.7 1.7 80 1.3 NNE 41 50 22 27 1024.5 1025.8 0.0
21/11:00pm 4.6 -4.8 2.1 84 1.1 NNE 41 48 22 26 1024.7 1026.0 0.0
21/10:30pm 5.3 -3.7 2.3 81 1.3 NNE 39 43 21 23 1025.1 1026.5 0.0
21/10:00pm 6.0 -2.1 1.3 72 2.0 NNE 33 41 18 22 1025.6 1026.9 0.0
21/09:30pm 5.9 -0.2 2.5 79 1.5 NNE 24 32 13 17 1025.8 1027.2 0.0
21/09:00pm 4.7 -1.2 3.8 94 0.4 NNE 24 28 13 15 1026.0 1027.4 0.0
21/08:30pm 5.3 -0.6 3.8 90 0.7 N 24 26 13 14 1026.3 1027.6 0.0
21/08:00pm 6.0 -0.3 3.7 85 1.0 NNE 26 32 14 17 1026.5 1027.8 0.0
21/07:30pm 7.0 0.6 3.4 78 1.6 NNE 26 32 14 17 1026.5 1027.8 0.0
21/07:00pm 7.7 1.7 3.6 75 1.9 NNE 24 30 13 16 1026.5 1027.8 0.0
21/06:30pm 8.7 3.1 3.7 71 2.3 N 22 26 12 14 1026.9 1028.3 0.0
21/06:00pm 9.4 4.4 3.8 68 2.6 NNE 19 26 10 14 1027.3 1028.6 0.0
21/05:30pm 9.7 4.5 3.7 66 2.8 NNE 20 28 11 15 1027.4 1028.8 0.0
21/05:00pm 10.3 4.3 3.6 63 3.1 NNE 24 32 13 17 1027.6 1029.0 0.0
21/04:30pm 10.8 4.5 3.8 62 3.3 NNE 26 33 14 18 1027.8 1029.2 0.0
21/04:00pm 11.4 5.5 3.7 59 3.6 NNE 24 33 13 18 1028.2 1029.6 0.0
21/03:30pm 11.8 5.9 4.1 59 3.7 NNE 24 35 13 19 1028.3 1029.7 0.0
21/03:00pm 11.3 5.1 2.3 54 4.1 NNE 24 35 13 19 1028.5 1029.9 0.0
21/02:30pm 11.2 4.7 2.8 56 3.9 NNE 26 35 14 19 1028.8 1030.3 0.0
21/02:00pm 11.9 6.1 4.4 60 3.6 NNE 24 37 13 20 1029.3 1030.7 0.0
21/01:30pm 11.2 5.3 3.7 60 3.5 NNE 24 33 13 18 1029.5 1030.9 0.0
21/01:00pm 10.2 3.8 3.3 62 3.2 NNE 26 35 14 19 1029.7 1031.2 0.0
21/12:30pm 10.3 3.6 3.8 64 3.1 NNE 28 39 15 21 1029.6 1031.1 0.0
21/12:00pm 8.8 1.6 2.8 66 2.7 NNE 30 37 16 20 1029.7 1031.2 0.0
21/11:30am 8.1 0.6 3.2 71 2.2 NNE 32 41 17 22 1029.8 1031.3 0.0
21/11:00am 7.8 0.1 3.5 74 2.0 NNE 33 43 18 23 1029.8 1031.3 0.0
21/10:30am 6.3 -1.4 2.2 75 1.8 N 32 43 17 23 1029.9 1031.4 0.0
21/10:00am 5.2 -2.7 1.3 76 1.6 NNE 32 41 17 22 1030.0 1031.5 0.0
21/09:30am 4.7 -2.3 1.9 82 1.2 NNE 28 39 15 21 1030.2 1031.6 0.0
21/09:00am 4.6 -1.7 1.5 80 1.3 NNE 24 30 13 16 1029.9 1031.4 0.2
21/08:30am 3.7 -1.9 1.1 83 1.1 NNE 20 30 11 16 1030.0 1031.5 0.2
21/08:00am 3.4 -0.6 0.3 80 1.2 N 11 17 6 9 1030.4 1031.9 0.2
21/07:30am 3.1 -0.6 0.2 81 1.2 NE 9 13 5 7 1030.2 1031.6 0.2
21/07:00am 3.1 -0.1 -0.2 79 1.3 NNE 6 7 3 4 1030.0 1031.5 0.2
21/06:30am 3.0 -0.5 -1.2 74 1.6 E 7 9 4 5 1029.8 1031.3 0.2
21/06:00am 1.2 -2.2 -0.4 89 0.6 E 7 9 4 5 1029.4 1030.8 0.2
21/05:30am 0.7 -4.1 0.3 97 0.2 E 15 20 8 11 1028.9 1030.4 0.2
21/05:00am 1.6 -3.3 -0.2 88 0.7 NE 15 20 8 11 1028.8 1030.3 0.2
21/04:30am 1.5 -3.7 0.3 92 0.5 NNE 17 22 9 12 1028.8 1030.3 0.2
21/04:00am 1.0 -5.4 0.9 99 0.0 N 24 33 13 18 1029.0 1030.5 0.2
21/03:30am 0.7 -6.5 0.6 99 0.0 NNE 28 35 15 19 1029.4 1030.8 0.2
21/03:00am 0.4 -6.5 0.3 99 0.0 NNE 26 30 14 16 1029.8 1031.3 0.2
21/02:30am 0.3 -6.6 -0.1 97 0.2 N 26 30 14 16 1029.9 1031.4 0.2
21/02:00am 0.1 -6.9 -0.3 97 0.2 N 26 28 14 15 1030.0 1031.5 0.2
21/01:30am 0.7 -6.5 -1.7 84 0.9 NNE 26 30 14 16 1030.2 1031.6 0.2
21/01:00am 0.9 -6.3 -1.8 82 1.1 NNE 26 30 14 16 1030.4 1031.9 0.2
21/12:30am 1.1 -5.7 -1.5 83 1.0 NNE 24 28 13 15 1030.6 1032.1 0.2
21/12:00am 1.1 -6.4 -1.1 85 0.8 NNE 28 30 15 16 1030.7 1032.2 0.2
 
Date/Time
EDT
Temp
°C
App
Temp
°C
Dew
Point
Rel
Hum
%
Delta-T
°C
Wind Press
QNH
hPa
Press
MSL
hPa
Rain
since 9 am
mm
Dir
 
Spd
km/h
Gust
km/h
Spd
kts
Gust
kts
20/11:30pm 0.9 -6.1 -0.4 91 0.5 N 26 28 14 15 1030.8 1032.3 0.2
20/11:00pm 1.3 -5.2 0.1 92 0.5 N 24 28 13 15 1030.9 1032.4 0.2
20/10:30pm 2.0 -4.8 0.8 92 0.5 N 26 28 14 15 1031.3 1032.8 0.2
20/10:00pm 2.3 -3.0 1.7 96 0.2 N 19 26 10 14 1031.4 1032.9 0.2
20/09:30pm 2.7 -2.7 2.6 99 0.0 N 20 26 11 14 1031.5 1033.0 0.2
20/09:00pm 3.5 -1.3 2.6 94 0.4 N 17 24 9 13 1031.3 1032.8 0.2
20/08:30pm 4.5 -0.3 2.8 89 0.7 NNE 17 20 9 11 1031.2 1032.7 0.2
20/08:00pm 4.8 1.5 2.2 83 1.1 NNE 9 11 5 6 1030.8 1032.3 0.2
20/07:30pm 5.4 2.7 2.4 81 1.3 N 6 9 3 5 1030.8 1032.3 0.2
20/07:00pm 4.8 2.2 3.1 89 0.7 S 6 7 3 4 1030.6 1032.1 0.2
20/06:30pm 5.1 1.9 2.8 85 1.0 SW 9 13 5 7 1030.6 1032.1 0.2
20/06:00pm 5.4 2.2 3.3 86 0.9 SSW 9 15 5 8 1030.6 1032.1 0.2
20/05:30pm 6.0 2.1 3.3 83 1.2 S 13 19 7 10 1030.7 1032.2 0.2
20/05:00pm 6.5 2.2 3.5 81 1.3 SSW 15 20 8 11 1030.7 1032.2 0.2
20/04:30pm 6.8 2.9 3.4 79 1.5 S 13 20 7 11 1030.6 1032.1 0.2
20/04:00pm 6.8 3.2 3.2 78 1.6 SSW 11 17 6 9 1030.6 1032.1 0.2
20/03:30pm 8.0 5.3 2.9 70 2.3 NE 6 13 3 7 1030.8 1032.3 0.2
20/03:00pm 8.1 5.4 3.8 74 2.0 WNW 7 13 4 7 1030.8 1032.3 0.2
20/02:30pm 6.9 3.7 3.3 78 1.6 NW 9 17 5 9 1031.0 1032.5 0.2
20/02:00pm 6.5 3.5 2.0 73 2.0 NNW 7 15 4 8 1031.2 1032.7 0.2
20/01:30pm 6.8 4.0 3.2 78 1.6 N 7 15 4 8 1031.2 1032.7 0.2
20/01:00pm 6.9 4.6 4.6 85 1.1 ESE 6 13 3 7 1031.4 1032.9 0.2
20/12:30pm 5.4 2.7 3.6 88 0.8 N 7 13 4 7 1031.5 1033.0 0.2
20/12:00pm 2.7 -0.3 1.8 94 0.4 NW 7 11 4 6 1031.4 1032.9 0.2
20/11:30am 2.6 -0.8 -0.3 81 1.2 ESE 7 15 4 8 1031.4 1032.9 0.2
20/11:00am 2.5 -1.0 1.0 90 0.6 SE 9 17 5 9 1031.4 1032.9 0.2
20/10:30am 1.1 -3.0 -0.2 91 0.5 SSE 11 17 6 9 1031.0 1032.5 0.2
20/10:00am 1.1 -4.1 -0.1 92 0.5 SE 17 20 9 11 1030.8 1032.3 0.2

Other Formats:

Comma delimited format used in spreadsheet applications
http://www.bom.gov.au/fwo/IDT60801/IDT60801.95952.axf

JavaScript Object Notation format (JSON) in row-major order
http://www.bom.gov.au/fwo/IDT60801/IDT60801.95952.json